sensor_id;sensor_type;location;lat;lon;timestamp;P1;durP1;ratioP1;P2;durP2;ratioP2
2662;SDS011;49701;48.072;7.800;2023-07-31T00:00:29;8.43;;;1.67;;
2662;SDS011;49701;48.072;7.800;2023-07-31T00:02:55;5.07;;;1.70;;
2662;SDS011;49701;48.072;7.800;2023-07-31T00:05:20;5.93;;;1.67;;
2662;SDS011;49701;48.072;7.800;2023-07-31T00:07:47;2.00;;;1.35;;
2662;SDS011;49701;48.072;7.800;2023-07-31T00:10:12;5.60;;;1.58;;
2662;SDS011;49701;48.072;7.800;2023-07-31T00:12:39;2.88;;;1.70;;
2662;SDS011;49701;48.072;7.800;2023-07-31T00:15:07;4.15;;;1.60;;
2662;SDS011;49701;48.072;7.800;2023-07-31T00:17:33;4.05;;;1.67;;
2662;SDS011;49701;48.072;7.800;2023-07-31T00:19:59;4.45;;;1.50;;
2662;SDS011;49701;48.072;7.800;2023-07-31T00:22:24;4.50;;;1.85;;
2662;SDS011;49701;48.072;7.800;2023-07-31T00:24:51;8.30;;;1.48;;
2662;SDS011;49701;48.072;7.800;2023-07-31T00:27:16;5.03;;;1.60;;
2662;SDS011;49701;48.072;7.800;2023-07-31T00:29:42;2.95;;;1.75;;
2662;SDS011;49701;48.072;7.800;2023-07-31T00:32:08;2.92;;;1.27;;
2662;SDS011;49701;48.072;7.800;2023-07-31T00:34:37;2.40;;;1.63;;
2662;SDS011;49701;48.072;7.800;2023-07-31T00:37:02;3.30;;;1.70;;
2662;SDS011;49701;48.072;7.800;2023-07-31T00:39:29;4.57;;;1.35;;
2662;SDS011;49701;48.072;7.800;2023-07-31T00:41:55;4.32;;;1.80;;
2662;SDS011;49701;48.072;7.800;2023-07-31T00:44:21;3.03;;;1.60;;
2662;SDS011;49701;48.072;7.800;2023-07-31T00:46:47;2.75;;;1.50;;
2662;SDS011;49701;48.072;7.800;2023-07-31T00:49:13;3.13;;;1.60;;
2662;SDS011;49701;48.072;7.800;2023-07-31T00:51:39;3.13;;;1.60;;
2662;SDS011;49701;48.072;7.800;2023-07-31T00:54:05;3.17;;;1.70;;
2662;SDS011;49701;48.072;7.800;2023-07-31T00:56:31;4.63;;;1.70;;
2662;SDS011;49701;48.072;7.800;2023-07-31T00:58:57;3.80;;;2.00;;
2662;SDS011;49701;48.072;7.800;2023-07-31T01:01:23;4.43;;;1.60;;
2662;SDS011;49701;48.072;7.800;2023-07-31T01:03:49;4.55;;;1.52;;
2662;SDS011;49701;48.072;7.800;2023-07-31T01:08:50;5.18;;;1.60;;
2662;SDS011;49701;48.072;7.800;2023-07-31T01:11:27;3.88;;;1.65;;
2662;SDS011;49701;48.072;7.800;2023-07-31T01:13:55;6.90;;;2.00;;
2662;SDS011;49701;48.072;7.800;2023-07-31T01:16:21;3.95;;;1.88;;
2662;SDS011;49701;48.072;7.800;2023-07-31T01:18:47;5.40;;;2.10;;
2662;SDS011;49701;48.072;7.800;2023-07-31T01:26:30;6.97;;;1.85;;
2662;SDS011;49701;48.072;7.800;2023-07-31T01:31:29;6.65;;;2.00;;
2662;SDS011;49701;48.072;7.800;2023-07-31T01:33:56;5.30;;;1.80;;
2662;SDS011;49701;48.072;7.800;2023-07-31T01:36:25;2.92;;;2.00;;
2662;SDS011;49701;48.072;7.800;2023-07-31T01:38:51;5.30;;;2.00;;
2662;SDS011;49701;48.072;7.800;2023-07-31T01:41:17;6.68;;;2.28;;
2662;SDS011;49701;48.072;7.800;2023-07-31T01:43:43;7.95;;;2.20;;
2662;SDS011;49701;48.072;7.800;2023-07-31T01:46:11;3.97;;;2.15;;
2662;SDS011;49701;48.072;7.800;2023-07-31T01:48:36;4.20;;;2.10;;
2662;SDS011;49701;48.072;7.800;2023-07-31T01:51:02;5.80;;;2.10;;
2662;SDS011;49701;48.072;7.800;2023-07-31T01:53:28;5.72;;;2.25;;
2662;SDS011;49701;48.072;7.800;2023-07-31T01:55:55;4.55;;;2.40;;
2662;SDS011;49701;48.072;7.800;2023-07-31T01:58:21;5.95;;;1.80;;
2662;SDS011;49701;48.072;7.800;2023-07-31T02:00:47;3.15;;;2.00;;
2662;SDS011;49701;48.072;7.800;2023-07-31T02:03:12;6.57;;;1.90;;
2662;SDS011;49701;48.072;7.800;2023-07-31T02:05:45;4.72;;;2.00;;
2662;SDS011;49701;48.072;7.800;2023-07-31T02:08:11;3.87;;;1.93;;
2662;SDS011;49701;48.072;7.800;2023-07-31T02:10:37;3.08;;;1.92;;
2662;SDS011;49701;48.072;7.800;2023-07-31T02:13:02;4.00;;;2.15;;
2662;SDS011;49701;48.072;7.800;2023-07-31T02:15:32;2.85;;;2.35;;
2662;SDS011;49701;48.072;7.800;2023-07-31T02:17:57;3.97;;;2.08;;
2662;SDS011;49701;48.072;7.800;2023-07-31T02:20:24;5.30;;;2.05;;
2662;SDS011;49701;48.072;7.800;2023-07-31T02:22:50;5.22;;;2.25;;
2662;SDS011;49701;48.072;7.800;2023-07-31T02:25:16;3.17;;;2.10;;
2662;SDS011;49701;48.072;7.800;2023-07-31T02:27:42;5.40;;;2.42;;
2662;SDS011;49701;48.072;7.800;2023-07-31T02:30:08;5.85;;;2.50;;
2662;SDS011;49701;48.072;7.800;2023-07-31T02:32:34;5.75;;;2.47;;
2662;SDS011;49701;48.072;7.800;2023-07-31T02:34:59;3.58;;;2.15;;
2662;SDS011;49701;48.072;7.800;2023-07-31T02:37:25;5.55;;;2.35;;
2662;SDS011;49701;48.072;7.800;2023-07-31T02:39:53;2.17;;;2.00;;
2662;SDS011;49701;48.072;7.800;2023-07-31T02:42:19;7.03;;;4.43;;
2662;SDS011;49701;48.072;7.800;2023-07-31T02:44:45;5.95;;;3.47;;
2662;SDS011;49701;48.072;7.800;2023-07-31T02:47:11;8.07;;;2.85;;
2662;SDS011;49701;48.072;7.800;2023-07-31T02:49:37;5.93;;;2.58;;
2662;SDS011;49701;48.072;7.800;2023-07-31T02:52:02;4.32;;;2.20;;
2662;SDS011;49701;48.072;7.800;2023-07-31T02:54:28;3.95;;;2.13;;
2662;SDS011;49701;48.072;7.800;2023-07-31T02:56:54;4.68;;;1.90;;
2662;SDS011;49701;48.072;7.800;2023-07-31T02:59:20;5.28;;;2.10;;
2662;SDS011;49701;48.072;7.800;2023-07-31T03:01:46;3.42;;;2.10;;
2662;SDS011;49701;48.072;7.800;2023-07-31T03:04:12;3.80;;;2.55;;
2662;SDS011;49701;48.072;7.800;2023-07-31T03:06:37;7.25;;;2.30;;
2662;SDS011;49701;48.072;7.800;2023-07-31T03:09:03;4.60;;;2.00;;
2662;SDS011;49701;48.072;7.800;2023-07-31T03:11:28;6.30;;;2.20;;
2662;SDS011;49701;48.072;7.800;2023-07-31T03:13:55;5.43;;;2.08;;
2662;SDS011;49701;48.072;7.800;2023-07-31T03:16:21;4.68;;;2.40;;
2662;SDS011;49701;48.072;7.800;2023-07-31T03:18:47;5.05;;;2.33;;
2662;SDS011;49701;48.072;7.800;2023-07-31T03:21:13;6.30;;;2.40;;
2662;SDS011;49701;48.072;7.800;2023-07-31T03:23:39;6.75;;;2.40;;
2662;SDS011;49701;48.072;7.800;2023-07-31T03:26:06;4.07;;;2.35;;
2662;SDS011;49701;48.072;7.800;2023-07-31T03:28:33;6.22;;;2.60;;
2662;SDS011;49701;48.072;7.800;2023-07-31T03:30:59;5.65;;;2.03;;
2662;SDS011;49701;48.072;7.800;2023-07-31T03:33:25;6.88;;;2.78;;
2662;SDS011;49701;48.072;7.800;2023-07-31T03:35:51;5.80;;;2.58;;
2662;SDS011;49701;48.072;7.800;2023-07-31T03:38:17;3.20;;;2.00;;
2662;SDS011;49701;48.072;7.800;2023-07-31T03:40:43;3.88;;;2.28;;
2662;SDS011;49701;48.072;7.800;2023-07-31T03:43:10;5.22;;;2.00;;
2662;SDS011;49701;48.072;7.800;2023-07-31T03:45:37;5.82;;;2.47;;
2662;SDS011;49701;48.072;7.800;2023-07-31T03:48:03;6.88;;;2.17;;
2662;SDS011;49701;48.072;7.800;2023-07-31T03:50:29;3.92;;;2.20;;
2662;SDS011;49701;48.072;7.800;2023-07-31T03:52:55;3.35;;;2.38;;
2662;SDS011;49701;48.072;7.800;2023-07-31T03:55:20;3.60;;;2.00;;
2662;SDS011;49701;48.072;7.800;2023-07-31T03:57:47;4.95;;;2.20;;
2662;SDS011;49701;48.072;7.800;2023-07-31T04:00:13;3.08;;;2.00;;
2662;SDS011;49701;48.072;7.800;2023-07-31T04:02:40;5.78;;;2.92;;
2662;SDS011;49701;48.072;7.800;2023-07-31T04:05:06;6.10;;;2.38;;
2662;SDS011;49701;48.072;7.800;2023-07-31T04:07:32;2.83;;;2.20;;
2662;SDS011;49701;48.072;7.800;2023-07-31T04:09:58;4.07;;;2.60;;
2662;SDS011;49701;48.072;7.800;2023-07-31T04:12:24;6.00;;;2.15;;
2662;SDS011;49701;48.072;7.800;2023-07-31T04:14:50;5.00;;;2.15;;
2662;SDS011;49701;48.072;7.800;2023-07-31T04:17:17;5.75;;;2.17;;
2662;SDS011;49701;48.072;7.800;2023-07-31T04:19:43;6.40;;;1.90;;
2662;SDS011;49701;48.072;7.800;2023-07-31T04:22:08;3.08;;;2.45;;
2662;SDS011;49701;48.072;7.800;2023-07-31T04:24:34;5.07;;;2.28;;
2662;SDS011;49701;48.072;7.800;2023-07-31T04:27:00;5.28;;;2.35;;
2662;SDS011;49701;48.072;7.800;2023-07-31T04:29:26;7.18;;;2.30;;
2662;SDS011;49701;48.072;7.800;2023-07-31T04:31:51;6.70;;;2.50;;
2662;SDS011;49701;48.072;7.800;2023-07-31T04:34:17;5.07;;;2.25;;
2662;SDS011;49701;48.072;7.800;2023-07-31T04:36:43;5.07;;;2.30;;
2662;SDS011;49701;48.072;7.800;2023-07-31T04:39:08;5.88;;;2.22;;
2662;SDS011;49701;48.072;7.800;2023-07-31T04:41:34;3.20;;;2.53;;
2662;SDS011;49701;48.072;7.800;2023-07-31T04:44:00;2.53;;;2.30;;
2662;SDS011;49701;48.072;7.800;2023-07-31T04:46:26;4.07;;;2.35;;
2662;SDS011;49701;48.072;7.800;2023-07-31T04:48:51;3.95;;;2.40;;
2662;SDS011;49701;48.072;7.800;2023-07-31T04:51:17;6.15;;;2.35;;
2662;SDS011;49701;48.072;7.800;2023-07-31T04:53:43;4.45;;;2.45;;
2662;SDS011;49701;48.072;7.800;2023-07-31T04:56:08;13.55;;;6.50;;
2662;SDS011;49701;48.072;7.800;2023-07-31T04:58:34;9.75;;;4.60;;
2662;SDS011;49701;48.072;7.800;2023-07-31T05:00:59;5.10;;;3.10;;
2662;SDS011;49701;48.072;7.800;2023-07-31T05:03:25;7.43;;;3.00;;
2662;SDS011;49701;48.072;7.800;2023-07-31T05:05:51;7.00;;;2.85;;
2662;SDS011;49701;48.072;7.800;2023-07-31T05:08:16;7.07;;;3.47;;
2662;SDS011;49701;48.072;7.800;2023-07-31T05:10:45;5.65;;;3.80;;
2662;SDS011;49701;48.072;7.800;2023-07-31T05:13:10;7.70;;;3.63;;
2662;SDS011;49701;48.072;7.800;2023-07-31T05:15:36;7.72;;;3.38;;
2662;SDS011;49701;48.072;7.800;2023-07-31T05:18:03;7.15;;;2.60;;
2662;SDS011;49701;48.072;7.800;2023-07-31T05:20:29;4.07;;;1.92;;
2662;SDS011;49701;48.072;7.800;2023-07-31T05:22:54;3.40;;;1.92;;
2662;SDS011;49701;48.072;7.800;2023-07-31T05:25:20;5.68;;;2.08;;
2662;SDS011;49701;48.072;7.800;2023-07-31T05:27:45;6.00;;;1.75;;
2662;SDS011;49701;48.072;7.800;2023-07-31T05:30:11;3.95;;;1.75;;
2662;SDS011;49701;48.072;7.800;2023-07-31T05:32:37;4.85;;;2.08;;
2662;SDS011;49701;48.072;7.800;2023-07-31T05:35:02;5.90;;;1.90;;
2662;SDS011;49701;48.072;7.800;2023-07-31T05:37:29;4.30;;;2.00;;
2662;SDS011;49701;48.072;7.800;2023-07-31T05:39:54;4.07;;;1.90;;
2662;SDS011;49701;48.072;7.800;2023-07-31T05:42:20;5.38;;;2.25;;
2662;SDS011;49701;48.072;7.800;2023-07-31T05:44:46;6.93;;;2.00;;
2662;SDS011;49701;48.072;7.800;2023-07-31T05:47:12;6.93;;;1.50;;
2662;SDS011;49701;48.072;7.800;2023-07-31T05:49:37;5.28;;;1.88;;
2662;SDS011;49701;48.072;7.800;2023-07-31T05:52:03;4.00;;;1.65;;
2662;SDS011;49701;48.072;7.800;2023-07-31T05:54:29;4.05;;;1.60;;
2662;SDS011;49701;48.072;7.800;2023-07-31T05:56:56;3.50;;;1.48;;
2662;SDS011;49701;48.072;7.800;2023-07-31T05:59:22;5.00;;;1.77;;
2662;SDS011;49701;48.072;7.800;2023-07-31T06:01:48;3.58;;;1.85;;
2662;SDS011;49701;48.072;7.800;2023-07-31T06:04:13;4.40;;;1.92;;
2662;SDS011;49701;48.072;7.800;2023-07-31T06:06:39;3.15;;;1.35;;
2662;SDS011;49701;48.072;7.800;2023-07-31T06:09:05;5.15;;;1.77;;
2662;SDS011;49701;48.072;7.800;2023-07-31T06:11:30;6.85;;;2.10;;
2662;SDS011;49701;48.072;7.800;2023-07-31T06:13:56;7.60;;;1.67;;
2662;SDS011;49701;48.072;7.800;2023-07-31T06:16:22;2.65;;;1.45;;
2662;SDS011;49701;48.072;7.800;2023-07-31T06:18:48;3.20;;;1.40;;
2662;SDS011;49701;48.072;7.800;2023-07-31T06:21:14;2.30;;;1.20;;
2662;SDS011;49701;48.072;7.800;2023-07-31T06:23:39;5.25;;;1.80;;
2662;SDS011;49701;48.072;7.800;2023-07-31T06:26:05;6.63;;;1.60;;
2662;SDS011;49701;48.072;7.800;2023-07-31T06:28:31;4.90;;;1.67;;
2662;SDS011;49701;48.072;7.800;2023-07-31T06:30:57;6.28;;;1.70;;
2662;SDS011;49701;48.072;7.800;2023-07-31T06:33:24;3.10;;;1.40;;
2662;SDS011;49701;48.072;7.800;2023-07-31T06:35:50;5.45;;;1.95;;
2662;SDS011;49701;48.072;7.800;2023-07-31T06:38:16;4.68;;;1.80;;
2662;SDS011;49701;48.072;7.800;2023-07-31T06:40:43;5.63;;;1.83;;
2662;SDS011;49701;48.072;7.800;2023-07-31T06:43:09;4.15;;;1.40;;
2662;SDS011;49701;48.072;7.800;2023-07-31T06:45:35;1.65;;;1.38;;
2662;SDS011;49701;48.072;7.800;2023-07-31T06:48:01;10.32;;;1.58;;
2662;SDS011;49701;48.072;7.800;2023-07-31T06:50:29;5.80;;;1.35;;
2662;SDS011;49701;48.072;7.800;2023-07-31T06:52:55;1.92;;;1.50;;
2662;SDS011;49701;48.072;7.800;2023-07-31T06:55:21;7.05;;;1.77;;
2662;SDS011;49701;48.072;7.800;2023-07-31T06:57:48;3.63;;;1.58;;
2662;SDS011;49701;48.072;7.800;2023-07-31T07:00:15;4.70;;;1.40;;
2662;SDS011;49701;48.072;7.800;2023-07-31T07:02:42;3.88;;;1.40;;
2662;SDS011;49701;48.072;7.800;2023-07-31T07:05:08;3.75;;;1.30;;
2662;SDS011;49701;48.072;7.800;2023-07-31T07:07:34;4.88;;;1.55;;
2662;SDS011;49701;48.072;7.800;2023-07-31T07:10:00;4.57;;;1.48;;
2662;SDS011;49701;48.072;7.800;2023-07-31T07:12:28;2.70;;;1.60;;
2662;SDS011;49701;48.072;7.800;2023-07-31T07:14:55;3.25;;;1.42;;
2662;SDS011;49701;48.072;7.800;2023-07-31T07:17:22;6.57;;;1.80;;
2662;SDS011;49701;48.072;7.800;2023-07-31T07:19:48;4.20;;;1.40;;
2662;SDS011;49701;48.072;7.800;2023-07-31T07:22:14;3.58;;;1.50;;
2662;SDS011;49701;48.072;7.800;2023-07-31T07:24:40;4.25;;;1.70;;
2662;SDS011;49701;48.072;7.800;2023-07-31T07:27:06;5.38;;;1.60;;
2662;SDS011;49701;48.072;7.800;2023-07-31T07:29:33;4.13;;;1.60;;
2662;SDS011;49701;48.072;7.800;2023-07-31T07:31:59;5.60;;;1.60;;
2662;SDS011;49701;48.072;7.800;2023-07-31T07:34:28;7.75;;;1.67;;
2662;SDS011;49701;48.072;7.800;2023-07-31T07:36:53;6.60;;;1.67;;
2662;SDS011;49701;48.072;7.800;2023-07-31T07:39:20;6.18;;;1.50;;
2662;SDS011;49701;48.072;7.800;2023-07-31T07:41:46;5.35;;;1.40;;
2662;SDS011;49701;48.072;7.800;2023-07-31T07:44:13;4.95;;;1.52;;
2662;SDS011;49701;48.072;7.800;2023-07-31T07:46:39;5.38;;;1.60;;
2662;SDS011;49701;48.072;7.800;2023-07-31T07:49:05;5.65;;;1.50;;
2662;SDS011;49701;48.072;7.800;2023-07-31T07:51:31;5.97;;;1.65;;
2662;SDS011;49701;48.072;7.800;2023-07-31T07:53:59;3.03;;;1.42;;
2662;SDS011;49701;48.072;7.800;2023-07-31T07:56:25;2.20;;;1.30;;
2662;SDS011;49701;48.072;7.800;2023-07-31T07:58:52;6.15;;;1.58;;
2662;SDS011;49701;48.072;7.800;2023-07-31T08:01:18;5.15;;;1.30;;
2662;SDS011;49701;48.072;7.800;2023-07-31T08:03:44;7.97;;;1.63;;
2662;SDS011;49701;48.072;7.800;2023-07-31T08:06:10;3.70;;;1.25;;
2662;SDS011;49701;48.072;7.800;2023-07-31T08:08:36;3.97;;;1.40;;
2662;SDS011;49701;48.072;7.800;2023-07-31T08:11:02;6.13;;;1.70;;
2662;SDS011;49701;48.072;7.800;2023-07-31T08:13:28;2.70;;;1.30;;
2662;SDS011;49701;48.072;7.800;2023-07-31T08:15:54;5.13;;;1.40;;
2662;SDS011;49701;48.072;7.800;2023-07-31T08:18:20;4.00;;;1.40;;
2662;SDS011;49701;48.072;7.800;2023-07-31T08:20:46;4.88;;;1.67;;
2662;SDS011;49701;48.072;7.800;2023-07-31T08:23:12;5.60;;;1.50;;
2662;SDS011;49701;48.072;7.800;2023-07-31T08:25:37;4.57;;;1.23;;
2662;SDS011;49701;48.072;7.800;2023-07-31T08:28:04;4.10;;;1.42;;
2662;SDS011;49701;48.072;7.800;2023-07-31T08:30:30;3.53;;;1.48;;
2662;SDS011;49701;48.072;7.800;2023-07-31T10:28:07;6.53;;;1.85;;
2662;SDS011;49701;48.072;7.800;2023-07-31T10:30:33;3.55;;;1.80;;
2662;SDS011;49701;48.072;7.800;2023-07-31T10:33:03;4.28;;;1.60;;
2662;SDS011;49701;48.072;7.800;2023-07-31T10:35:30;3.15;;;1.85;;
2662;SDS011;49701;48.072;7.800;2023-07-31T10:37:56;2.92;;;1.48;;
2662;SDS011;49701;48.072;7.800;2023-07-31T10:40:37;4.95;;;1.65;;
2662;SDS011;49701;48.072;7.800;2023-07-31T10:43:03;3.17;;;1.48;;
2662;SDS011;49701;48.072;7.800;2023-07-31T10:45:32;3.75;;;1.20;;
2662;SDS011;49701;48.072;7.800;2023-07-31T10:48:05;4.35;;;1.70;;
2662;SDS011;49701;48.072;7.800;2023-07-31T10:50:31;5.72;;;1.77;;
2662;SDS011;49701;48.072;7.800;2023-07-31T10:53:01;4.28;;;1.67;;
2662;SDS011;49701;48.072;7.800;2023-07-31T10:55:46;5.70;;;1.70;;
2662;SDS011;49701;48.072;7.800;2023-07-31T10:58:13;8.65;;;1.98;;
2662;SDS011;49701;48.072;7.800;2023-07-31T11:00:43;6.32;;;2.38;;
2662;SDS011;49701;48.072;7.800;2023-07-31T11:03:13;4.35;;;1.70;;
2662;SDS011;49701;48.072;7.800;2023-07-31T11:10:41;4.57;;;1.80;;
2662;SDS011;49701;48.072;7.800;2023-07-31T11:13:08;6.60;;;1.77;;
2662;SDS011;49701;48.072;7.800;2023-07-31T11:15:33;3.78;;;1.90;;
2662;SDS011;49701;48.072;7.800;2023-07-31T11:18:02;5.93;;;1.70;;
2662;SDS011;49701;48.072;7.800;2023-07-31T11:20:30;6.93;;;1.90;;
2662;SDS011;49701;48.072;7.800;2023-07-31T11:23:03;5.00;;;1.85;;
2662;SDS011;49701;48.072;7.800;2023-07-31T11:25:34;5.68;;;2.05;;
2662;SDS011;49701;48.072;7.800;2023-07-31T11:28:08;4.00;;;1.90;;
2662;SDS011;49701;48.072;7.800;2023-07-31T11:30:35;5.63;;;1.80;;
2662;SDS011;49701;48.072;7.800;2023-07-31T11:33:01;3.72;;;1.80;;
2662;SDS011;49701;48.072;7.800;2023-07-31T11:35:31;4.25;;;1.67;;
2662;SDS011;49701;48.072;7.800;2023-07-31T11:38:06;3.45;;;1.70;;
2662;SDS011;49701;48.072;7.800;2023-07-31T11:40:40;5.10;;;1.70;;
2662;SDS011;49701;48.072;7.800;2023-07-31T11:43:07;4.90;;;1.83;;
2662;SDS011;49701;48.072;7.800;2023-07-31T11:45:33;6.20;;;1.80;;
2662;SDS011;49701;48.072;7.800;2023-07-31T11:48:00;5.75;;;1.90;;
2662;SDS011;49701;48.072;7.800;2023-07-31T11:50:26;5.40;;;2.10;;
2662;SDS011;49701;48.072;7.800;2023-07-31T11:53:04;4.43;;;1.63;;
2662;SDS011;49701;48.072;7.800;2023-07-31T11:55:32;2.75;;;1.83;;
2662;SDS011;49701;48.072;7.800;2023-07-31T11:57:58;5.13;;;1.73;;
2662;SDS011;49701;48.072;7.800;2023-07-31T12:00:25;6.82;;;1.60;;
2662;SDS011;49701;48.072;7.800;2023-07-31T12:02:52;4.30;;;1.40;;
2662;SDS011;49701;48.072;7.800;2023-07-31T12:05:18;4.35;;;1.80;;
2662;SDS011;49701;48.072;7.800;2023-07-31T12:07:48;5.70;;;1.98;;
2662;SDS011;49701;48.072;7.800;2023-07-31T12:10:29;5.22;;;1.60;;
2662;SDS011;49701;48.072;7.800;2023-07-31T12:12:58;3.58;;;1.73;;
2662;SDS011;49701;48.072;7.800;2023-07-31T12:18:06;3.17;;;1.70;;
2662;SDS011;49701;48.072;7.800;2023-07-31T12:20:33;5.82;;;2.10;;
2662;SDS011;49701;48.072;7.800;2023-07-31T12:22:59;5.03;;;1.80;;
2662;SDS011;49701;48.072;7.800;2023-07-31T12:25:28;4.32;;;1.58;;
2662;SDS011;49701;48.072;7.800;2023-07-31T12:27:55;2.47;;;1.60;;
2662;SDS011;49701;48.072;7.800;2023-07-31T12:30:29;3.85;;;1.70;;
2662;SDS011;49701;48.072;7.800;2023-07-31T12:32:56;5.50;;;1.85;;
2662;SDS011;49701;48.072;7.800;2023-07-31T12:35:22;3.78;;;1.63;;
2662;SDS011;49701;48.072;7.800;2023-07-31T12:37:48;3.60;;;1.98;;
2662;SDS011;49701;48.072;7.800;2023-07-31T12:40:14;4.28;;;1.67;;
2662;SDS011;49701;48.072;7.800;2023-07-31T12:42:40;3.55;;;1.73;;
2662;SDS011;49701;48.072;7.800;2023-07-31T12:45:07;4.55;;;1.90;;
2662;SDS011;49701;48.072;7.800;2023-07-31T12:47:33;3.63;;;1.77;;
2662;SDS011;49701;48.072;7.800;2023-07-31T12:49:58;5.05;;;2.00;;
2662;SDS011;49701;48.072;7.800;2023-07-31T12:52:24;3.42;;;1.98;;
2662;SDS011;49701;48.072;7.800;2023-07-31T12:54:49;7.32;;;2.03;;
2662;SDS011;49701;48.072;7.800;2023-07-31T12:57:15;3.33;;;1.80;;
2662;SDS011;49701;48.072;7.800;2023-07-31T12:59:41;4.95;;;2.15;;
2662;SDS011;49701;48.072;7.800;2023-07-31T13:02:06;4.70;;;1.88;;
2662;SDS011;49701;48.072;7.800;2023-07-31T13:04:32;6.97;;;2.20;;
2662;SDS011;49701;48.072;7.800;2023-07-31T13:06:58;2.80;;;2.10;;
2662;SDS011;49701;48.072;7.800;2023-07-31T13:09:23;4.22;;;2.05;;
2662;SDS011;49701;48.072;7.800;2023-07-31T13:11:49;6.30;;;1.85;;
2662;SDS011;49701;48.072;7.800;2023-07-31T13:14:15;4.90;;;2.30;;
2662;SDS011;49701;48.072;7.800;2023-07-31T13:16:42;3.75;;;1.98;;
2662;SDS011;49701;48.072;7.800;2023-07-31T13:19:07;6.95;;;2.17;;
2662;SDS011;49701;48.072;7.800;2023-07-31T13:21:33;2.85;;;1.75;;
2662;SDS011;49701;48.072;7.800;2023-07-31T13:24:00;4.43;;;2.00;;
2662;SDS011;49701;48.072;7.800;2023-07-31T13:26:26;6.00;;;2.00;;
2662;SDS011;49701;48.072;7.800;2023-07-31T13:28:52;7.95;;;2.15;;
2662;SDS011;49701;48.072;7.800;2023-07-31T13:31:17;4.90;;;2.00;;
2662;SDS011;49701;48.072;7.800;2023-07-31T13:33:43;3.88;;;2.13;;
2662;SDS011;49701;48.072;7.800;2023-07-31T13:36:08;3.60;;;1.85;;
2662;SDS011;49701;48.072;7.800;2023-07-31T13:38:34;4.18;;;1.88;;
2662;SDS011;49701;48.072;7.800;2023-07-31T13:41:00;4.38;;;2.00;;
2662;SDS011;49701;48.072;7.800;2023-07-31T13:43:26;5.55;;;2.58;;
2662;SDS011;49701;48.072;7.800;2023-07-31T13:45:51;3.55;;;2.08;;
2662;SDS011;49701;48.072;7.800;2023-07-31T13:48:17;5.15;;;1.98;;
2662;SDS011;49701;48.072;7.800;2023-07-31T13:50:42;4.72;;;2.08;;
2662;SDS011;49701;48.072;7.800;2023-07-31T13:53:08;5.65;;;2.10;;
2662;SDS011;49701;48.072;7.800;2023-07-31T13:55:34;5.35;;;2.13;;
2662;SDS011;49701;48.072;7.800;2023-07-31T13:57:59;5.15;;;2.00;;
2662;SDS011;49701;48.072;7.800;2023-07-31T14:00:25;4.07;;;1.73;;
2662;SDS011;49701;48.072;7.800;2023-07-31T14:02:53;7.00;;;2.17;;
2662;SDS011;49701;48.072;7.800;2023-07-31T14:05:19;5.30;;;2.05;;
2662;SDS011;49701;48.072;7.800;2023-07-31T14:07:45;4.22;;;2.00;;
2662;SDS011;49701;48.072;7.800;2023-07-31T14:10:11;5.05;;;2.40;;
2662;SDS011;49701;48.072;7.800;2023-07-31T14:12:36;4.40;;;1.90;;
2662;SDS011;49701;48.072;7.800;2023-07-31T14:15:02;6.07;;;1.98;;
2662;SDS011;49701;48.072;7.800;2023-07-31T14:17:28;5.28;;;2.00;;
2662;SDS011;49701;48.072;7.800;2023-07-31T14:19:53;6.72;;;2.25;;
2662;SDS011;49701;48.072;7.800;2023-07-31T14:22:29;7.97;;;2.33;;
2662;SDS011;49701;48.072;7.800;2023-07-31T14:24:55;4.72;;;2.00;;
2662;SDS011;49701;48.072;7.800;2023-07-31T14:27:21;4.50;;;2.00;;
2662;SDS011;49701;48.072;7.800;2023-07-31T14:29:46;5.80;;;2.30;;
2662;SDS011;49701;48.072;7.800;2023-07-31T14:32:12;3.88;;;1.90;;
2662;SDS011;49701;48.072;7.800;2023-07-31T14:34:38;3.53;;;1.92;;
2662;SDS011;49701;48.072;7.800;2023-07-31T14:37:03;3.95;;;1.90;;
2662;SDS011;49701;48.072;7.800;2023-07-31T14:39:29;8.90;;;2.42;;
2662;SDS011;49701;48.072;7.800;2023-07-31T14:41:55;4.85;;;1.80;;
2662;SDS011;49701;48.072;7.800;2023-07-31T14:44:21;2.88;;;1.90;;
2662;SDS011;49701;48.072;7.800;2023-07-31T14:46:46;4.03;;;1.85;;
2662;SDS011;49701;48.072;7.800;2023-07-31T14:49:12;5.00;;;2.10;;
2662;SDS011;49701;48.072;7.800;2023-07-31T14:51:38;4.82;;;1.90;;
2662;SDS011;49701;48.072;7.800;2023-07-31T14:54:04;3.25;;;1.80;;
2662;SDS011;49701;48.072;7.800;2023-07-31T14:56:29;2.83;;;1.85;;
2662;SDS011;49701;48.072;7.800;2023-07-31T14:58:55;2.95;;;1.58;;
2662;SDS011;49701;48.072;7.800;2023-07-31T15:01:21;3.75;;;1.90;;
2662;SDS011;49701;48.072;7.800;2023-07-31T15:03:47;4.80;;;2.10;;
2662;SDS011;49701;48.072;7.800;2023-07-31T15:06:13;3.80;;;2.28;;
2662;SDS011;49701;48.072;7.800;2023-07-31T15:08:38;3.40;;;2.13;;
2662;SDS011;49701;48.072;7.800;2023-07-31T15:11:04;6.45;;;2.10;;
2662;SDS011;49701;48.072;7.800;2023-07-31T15:13:30;3.97;;;2.10;;
2662;SDS011;49701;48.072;7.800;2023-07-31T15:15:56;5.35;;;1.95;;
2662;SDS011;49701;48.072;7.800;2023-07-31T15:18:23;4.57;;;1.80;;
2662;SDS011;49701;48.072;7.800;2023-07-31T15:20:49;3.90;;;1.90;;
2662;SDS011;49701;48.072;7.800;2023-07-31T15:23:15;6.78;;;2.22;;
2662;SDS011;49701;48.072;7.800;2023-07-31T15:25:41;4.65;;;2.28;;
2662;SDS011;49701;48.072;7.800;2023-07-31T15:28:07;4.07;;;1.92;;
2662;SDS011;49701;48.072;7.800;2023-07-31T15:30:35;3.47;;;1.88;;
2662;SDS011;49701;48.072;7.800;2023-07-31T15:33:02;3.63;;;1.88;;
2662;SDS011;49701;48.072;7.800;2023-07-31T15:35:28;4.40;;;2.10;;
2662;SDS011;49701;48.072;7.800;2023-07-31T15:37:53;4.28;;;2.10;;
2662;SDS011;49701;48.072;7.800;2023-07-31T15:40:19;5.28;;;2.40;;
2662;SDS011;49701;48.072;7.800;2023-07-31T15:42:44;3.72;;;2.08;;
2662;SDS011;49701;48.072;7.800;2023-07-31T15:45:10;3.30;;;1.88;;
2662;SDS011;49701;48.072;7.800;2023-07-31T15:47:36;4.13;;;1.67;;
2662;SDS011;49701;48.072;7.800;2023-07-31T15:50:02;4.78;;;1.58;;
2662;SDS011;49701;48.072;7.800;2023-07-31T15:52:27;3.17;;;1.70;;
2662;SDS011;49701;48.072;7.800;2023-07-31T15:54:53;3.80;;;1.70;;
2662;SDS011;49701;48.072;7.800;2023-07-31T15:57:19;4.30;;;1.83;;
2662;SDS011;49701;48.072;7.800;2023-07-31T15:59:44;4.78;;;2.10;;
2662;SDS011;49701;48.072;7.800;2023-07-31T16:02:10;2.60;;;1.80;;
2662;SDS011;49701;48.072;7.800;2023-07-31T16:04:36;3.05;;;1.70;;
2662;SDS011;49701;48.072;7.800;2023-07-31T16:07:02;5.13;;;1.70;;
2662;SDS011;49701;48.072;7.800;2023-07-31T16:09:28;4.25;;;1.98;;
2662;SDS011;49701;48.072;7.800;2023-07-31T16:11:54;4.72;;;1.90;;
2662;SDS011;49701;48.072;7.800;2023-07-31T16:14:19;3.45;;;2.00;;
2662;SDS011;49701;48.072;7.800;2023-07-31T16:16:45;5.68;;;1.80;;
2662;SDS011;49701;48.072;7.800;2023-07-31T16:19:11;4.28;;;1.70;;
2662;SDS011;49701;48.072;7.800;2023-07-31T16:21:37;4.72;;;2.00;;
2662;SDS011;49701;48.072;7.800;2023-07-31T16:24:03;2.55;;;1.60;;
2662;SDS011;49701;48.072;7.800;2023-07-31T16:26:29;4.03;;;2.10;;
2662;SDS011;49701;48.072;7.800;2023-07-31T16:28:56;5.28;;;2.15;;
2662;SDS011;49701;48.072;7.800;2023-07-31T16:31:22;3.92;;;2.00;;
2662;SDS011;49701;48.072;7.800;2023-07-31T16:33:48;3.67;;;1.90;;
2662;SDS011;49701;48.072;7.800;2023-07-31T16:36:14;5.70;;;2.00;;
2662;SDS011;49701;48.072;7.800;2023-07-31T16:38:39;5.72;;;2.20;;
2662;SDS011;49701;48.072;7.800;2023-07-31T16:41:05;3.70;;;1.88;;
2662;SDS011;49701;48.072;7.800;2023-07-31T16:43:31;4.13;;;1.88;;
2662;SDS011;49701;48.072;7.800;2023-07-31T16:45:57;4.50;;;2.00;;
2662;SDS011;49701;48.072;7.800;2023-07-31T16:48:22;4.60;;;1.90;;
2662;SDS011;49701;48.072;7.800;2023-07-31T18:30:27;5.28;;;2.50;;
2662;SDS011;49701;48.072;7.800;2023-07-31T18:32:52;5.30;;;2.00;;
2662;SDS011;49701;48.072;7.800;2023-07-31T18:35:19;3.50;;;1.92;;
2662;SDS011;49701;48.072;7.800;2023-07-31T18:37:45;4.65;;;2.10;;
2662;SDS011;49701;48.072;7.800;2023-07-31T18:40:11;4.20;;;2.40;;
2662;SDS011;49701;48.072;7.800;2023-07-31T18:42:37;2.78;;;1.73;;
2662;SDS011;49701;48.072;7.800;2023-07-31T18:45:03;4.97;;;2.00;;
2662;SDS011;49701;48.072;7.800;2023-07-31T18:47:30;4.88;;;2.10;;